Latest Weather Observations for Cape Sorell

IDT60801

Issued at 11:01 am EST Saturday 23 May 2015 (issued every 30 minutes, with the page automatically refreshed every 10 minutes)

About weather observations | Map of weather stations | Latest weather observations for TAS | Other Formats
Station Details ID: 097000 Name: CAPE SORELL Lat: -42.20 Lon: 145.17 Height: 19.3 m
Data from the previous 72 hours. | See also: Recent months at Cape Sorell
Date/Time
EST
Temp
°C
App
Temp
°C
Dew
Point
Rel
Hum
%
Delta-T
°C
Wind Press
QNH
hPa
Press
MSL
hPa
Rain
since 9 am
mm
Dir
 
Spd
km/h
Gust
km/h
Spd
kts
Gust
kts
23/11:00am 11.4 7.8 6.7 73 2.2 SW 15 22 8 12 1031.5 1031.5 0.0
23/10:30am 11.1 8.5 6.3 72 2.2 SSW 9 11 5 6 1031.7 1031.7 0.0
23/10:00am 11.0 8.0 6.2 72 2.2 S 11 15 6 8 1031.6 1031.6 0.0
23/09:30am 11.3 7.0 6.8 74 2.1 SSW 19 24 10 13 1031.4 1031.4 0.0
23/09:00am 10.8 5.0 6.4 74 2.0 SW 26 30 14 16 1031.3 1031.3 0.2
23/08:30am 10.7 6.5 5.7 71 2.3 SSW 17 22 9 12 1031.4 1031.4 0.2
23/08:00am 10.7 4.4 5.9 72 2.2 SW 28 33 15 18 1031.0 1031.0 0.2
23/07:30am 10.4 6.9 5.6 72 2.2 SW 13 19 7 10 1030.9 1030.9 0.2
23/07:00am 10.4 6.9 5.6 72 2.2 SW 13 17 7 9 1030.8 1030.8 0.2
23/06:30am 10.4 5.8 5.8 73 2.1 SW 19 22 10 12 1030.5 1030.5 0.2
23/06:00am 10.5 7.8 5.7 72 2.2 SSW 9 17 5 9 1030.4 1030.4 0.2
23/05:30am 10.5 5.8 5.9 73 2.1 SW 20 24 11 13 1030.3 1030.3 0.2
23/05:00am 10.6 4.1 6.6 76 1.9 SW 30 32 16 17 1030.1 1030.1 0.2
23/04:30am 10.8 6.9 6.9 77 1.8 SSW 17 20 9 11 1030.0 1030.0 0.2
23/04:00am 10.5 7.7 6.8 78 1.7 SW 11 15 6 8 1030.0 1030.0 0.2
23/03:30am 9.8 7.3 6.5 80 1.5 SSW 9 13 5 7 1030.1 1030.1 0.2
23/03:00am 9.5 7.9 6.2 80 1.5 ESE 4 7 2 4 1030.3 1030.3 0.2
23/02:30am 9.6 7.8 5.6 76 1.8 ESE 4 7 2 4 1030.5 1030.5 0.2
23/02:00am 10.6 7.6 6.0 73 2.1 SSW 11 15 6 8 1030.5 1030.5 0.2
23/01:30am 10.3 5.8 5.9 74 2.0 SW 19 28 10 15 1030.6 1030.6 0.2
23/01:00am 10.6 5.7 6.9 78 1.7 SW 22 28 12 15 1030.5 1030.5 0.2
23/12:30am 10.4 5.2 7.1 80 1.6 SW 24 32 13 17 1030.6 1030.6 0.2
23/12:00am 10.5 5.4 7.7 83 1.3 SW 24 30 13 16 1030.6 1030.6 0.2
 
Date/Time
EST
Temp
°C
App
Temp
°C
Dew
Point
Rel
Hum
%
Delta-T
°C
Wind Press
QNH
hPa
Press
MSL
hPa
Rain
since 9 am
mm
Dir
 
Spd
km/h
Gust
km/h
Spd
kts
Gust
kts
22/11:30pm 10.4 6.4 8.2 86 1.1 SW 19 24 10 13 1030.6 1030.6 0.2
22/11:00pm 10.2 6.5 8.1 87 1.0 SW 17 20 9 11 1030.8 1030.8 0.2
22/10:30pm 9.8 4.1 8.2 90 0.8 SW 28 33 15 18 1030.8 1030.8 0.2
22/10:00pm 9.9 5.9 9.0 94 0.4 SW 20 28 11 15 1030.8 1030.8 0.2
22/09:30pm 9.7 6.6 8.9 95 0.4 SSW 15 28 8 15 1030.9 1030.9 0.2
22/09:00pm 9.1 3.7 8.0 93 0.5 WSW 26 30 14 16 1030.9 1030.9 0.2
22/08:30pm 9.6 5.5 8.0 90 0.8 SW 19 26 10 14 1030.9 1030.9 0.0
22/08:00pm 9.7 6.7 7.8 88 0.9 SW 13 17 7 9 1030.8 1030.8 0.0
22/07:30pm 9.8 5.5 7.7 87 1.0 SW 20 35 11 19 1030.4 1030.4 0.0
22/07:00pm 9.4 6.3 7.3 87 1.0 SW 13 17 7 9 1030.3 1030.3 0.0
22/06:30pm 9.9 3.6 7.3 84 1.2 SSW 30 33 16 18 1030.1 1030.1 0.0
22/06:00pm 9.8 3.8 7.1 83 1.3 SSW 28 35 15 19 1030.0 1030.0 0.0
22/05:30pm 9.9 5.6 7.0 82 1.4 SW 19 22 10 12 1030.1 1030.1 0.0
22/05:00pm 10.2 6.6 6.9 80 1.5 SW 15 30 8 16 1029.9 1029.9 0.0
22/04:30pm 9.8 4.7 6.0 77 1.8 SW 22 30 12 16 1030.1 1030.1 0.0
22/04:00pm 11.1 7.0 6.0 71 2.4 SW 17 20 9 11 1029.9 1029.9 0.0
22/03:30pm 11.0 7.6 6.0 71 2.3 SSW 13 28 7 15 1029.8 1029.8 0.0
22/03:00pm 10.9 7.0 5.4 69 2.5 SSW 15 22 8 12 1029.8 1029.8 0.0
22/02:30pm 11.0 5.6 6.2 72 2.2 SSW 24 32 13 17 1029.5 1029.5 0.0
22/02:00pm 11.4 7.5 5.5 67 2.7 SW 15 19 8 10 1029.7 1029.7 0.0
22/01:30pm 11.3 7.2 6.0 70 2.5 SW 17 24 9 13 1029.6 1029.6 0.0
22/01:00pm 11.5 7.6 5.4 66 2.8 SSW 15 20 8 11 1029.7 1029.7 0.0
22/12:30pm 11.4 6.3 5.9 69 2.6 SW 22 28 12 15 1029.9 1029.9 0.0
22/12:00pm 11.3 7.6 6.2 71 2.4 SSW 15 19 8 10 1030.3 1030.3 0.0
22/11:30am 11.3 7.8 5.6 68 2.6 SSW 13 17 7 9 1030.6 1030.6 0.0
22/11:00am 11.2 7.4 5.7 69 2.5 SSW 15 20 8 11 1030.6 1030.6 0.0
22/10:30am 10.8 7.4 6.0 72 2.2 SSW 13 19 7 10 1030.5 1030.5 0.0
22/10:00am 10.4 7.7 5.8 73 2.1 SSW 9 15 5 8 1030.5 1030.5 0.0
22/09:30am 10.1 5.9 5.5 73 2.1 SW 17 22 9 12 1030.4 1030.4 0.0
22/09:00am 10.1 6.6 5.3 72 2.2 S 13 19 7 10 1030.6 1030.6 0.0
22/08:30am 9.9 4.6 5.1 72 2.2 SSW 22 28 12 15 1030.4 1030.4 0.0
22/08:00am 9.6 5.2 4.8 72 2.1 SSW 17 24 9 13 1030.1 1030.1 0.0
22/07:30am 9.9 5.0 4.9 71 2.2 SSW 20 26 11 14 1029.9 1029.9 0.0
22/07:00am 9.9 4.2 4.9 71 2.2 SSW 24 37 13 20 1029.6 1029.6 0.0
22/06:30am 10.0 4.4 5.4 73 2.1 SSW 24 32 13 17 1029.4 1029.4 0.0
22/06:00am 10.1 3.7 5.3 72 2.2 SSW 28 33 15 18 1029.2 1029.2 0.0
22/05:30am 9.9 6.3 4.9 71 2.2 SSW 13 19 7 10 1029.1 1029.1 0.0
22/05:00am 10.0 4.0 5.2 72 2.2 SW 26 32 14 17 1029.0 1029.0 0.0
22/04:30am 10.0 4.1 5.6 74 2.0 SW 26 32 14 17 1028.8 1028.8 0.0
22/04:00am 9.9 5.2 5.9 76 1.8 SSW 20 24 11 13 1028.9 1028.9 0.0
22/03:30am 8.6 6.3 4.6 76 1.8 ESE 6 9 3 5 1029.1 1029.1 0.0
22/03:00am 8.4 6.0 4.4 76 1.7 E 6 7 3 4 1029.1 1029.1 0.0
22/02:30am 8.4 5.5 4.4 76 1.8 E 9 11 5 6 1029.0 1029.0 0.0
22/02:00am 8.5 6.0 4.5 76 1.7 ENE 7 9 4 5 1028.9 1028.9 0.0
22/01:30am 8.7 5.8 4.7 76 1.8 E 9 11 5 6 1029.0 1029.0 0.0
22/01:00am 8.7 5.8 4.5 75 1.8 E 9 11 5 6 1029.1 1029.1 0.0
22/12:30am 8.9 6.0 4.5 74 1.9 ESE 9 13 5 7 1029.2 1029.2 0.0
22/12:00am 9.0 5.7 4.6 74 1.9 ESE 11 15 6 8 1029.0 1029.0 0.0
 
Date/Time
EST
Temp
°C
App
Temp
°C
Dew
Point
Rel
Hum
%
Delta-T
°C
Wind Press
QNH
hPa
Press
MSL
hPa
Rain
since 9 am
mm
Dir
 
Spd
km/h
Gust
km/h
Spd
kts
Gust
kts
21/11:30pm 9.0 5.7 4.4 73 2.0 ESE 11 13 6 7 1029.0 1029.0 0.0
21/11:00pm 9.1 6.2 4.5 73 2.0 ESE 9 13 5 7 1029.0 1029.0 0.0
21/10:30pm 9.1 5.8 4.5 73 2.0 SE 11 17 6 9 1029.1 1029.1 0.0
21/10:00pm 8.9 5.6 4.3 73 2.0 SE 11 19 6 10 1029.1 1029.1 0.0
21/09:30pm 8.6 5.2 3.8 72 2.1 ESE 11 17 6 9 1028.9 1028.9 0.0
21/09:00pm 8.6 4.0 3.8 72 2.1 SE 17 24 9 13 1028.8 1028.8 0.0
21/08:30pm 8.4 3.8 3.7 72 2.0 SE 17 22 9 12 1028.7 1028.7 0.0
21/08:00pm 8.6 4.4 3.6 71 2.1 SE 15 22 8 12 1028.6 1028.6 0.0
21/07:30pm 9.5 4.7 4.5 71 2.2 SSE 19 28 10 15 1028.4 1028.4 0.0
21/07:00pm 10.2 5.4 5.4 72 2.2 S 20 28 11 15 1028.0 1028.0 0.0
21/06:30pm 9.8 4.5 4.8 71 2.2 S 22 28 12 15 1027.8 1027.8 0.0
21/06:00pm 10.2 4.9 5.2 71 2.3 S 22 30 12 16 1027.4 1027.4 0.0
21/05:30pm 10.4 5.2 5.4 71 2.3 S 22 28 12 15 1027.0 1027.0 0.0
21/05:00pm 10.6 5.5 5.8 72 2.2 S 22 30 12 16 1026.8 1026.8 0.0
21/04:30pm 10.8 6.1 6.0 72 2.2 S 20 28 11 15 1026.6 1026.6 0.0
21/04:00pm 10.6 5.9 6.0 73 2.1 SSE 20 26 11 14 1026.2 1026.2 0.0
21/03:30pm 10.6 8.1 6.4 75 2.0 SE 9 17 5 9 1025.9 1025.9 0.0
21/03:00pm 10.8 8.3 6.6 75 2.0 ESE 9 13 5 7 1025.6 1025.6 0.0
21/02:30pm 11.0 8.2 6.9 76 1.9 SE 11 15 6 8 1025.4 1025.4 0.0
21/02:00pm 10.7 7.5 6.8 77 1.8 SE 13 19 7 10 1025.5 1025.5 0.0
21/01:30pm 10.8 7.4 7.7 81 1.5 SE 15 22 8 12 1025.5 1025.5 0.0
21/01:00pm 10.9 7.2 8.1 83 1.4 SE 17 24 9 13 1025.6 1025.6 0.0
21/12:30pm 10.9 6.5 8.8 87 1.0 SSE 22 30 12 16 1025.7 1025.7 0.0
21/12:00pm 10.6 6.7 9.5 93 0.5 SE 20 28 11 15 1025.8 1025.8 0.0
21/11:30am 10.3 7.1 10.0 98 0.2 ESE 17 26 9 14 1026.0 1026.0 0.0
21/11:00am 9.8 7.7 9.7 99 0.0 ESE 11 15 6 8 1025.9 1025.9 0.0
21/10:30am 9.4 6.4 9.3 99 0.0 ESE 15 24 8 13 1025.6 1025.6 0.0
21/10:00am 8.8 5.3 8.7 99 0.0 E 17 24 9 13 1025.2 1025.2 0.0
21/09:30am 8.6 5.4 8.5 99 0.0 ESE 15 22 8 12 1025.0 1025.0 0.0
21/09:00am 8.5 6.8 8.4 99 0.0 E 7 11 4 6 1024.9 1024.9 0.4
21/08:30am 8.3 7.1 8.2 99 0.0 ESE 4 9 2 5 1024.5 1024.5 0.4
21/08:00am 7.9 6.6 7.8 99 0.0 ESE 4 6 2 3 1024.0 1024.0 0.4
21/07:30am 7.7 5.8 7.6 99 0.0 E 7 11 4 6 1023.5 1023.5 0.2
21/07:00am 7.8 5.6 7.7 99 0.0 ENE 9 11 5 6 1023.0 1023.0 0.2
21/06:30am 7.7 5.4 7.3 97 0.2 ENE 9 13 5 7 1022.4 1022.4 0.2
21/06:00am 7.7 5.7 7.0 95 0.3 ENE 7 11 4 6 1022.0 1022.0 0.2
21/05:30am 7.8 5.8 6.9 94 0.4 ENE 7 9 4 5 1021.7 1021.7 0.0
21/05:00am 7.8 5.3 6.4 91 0.6 E 9 13 5 7 1021.4 1021.4 0.0
21/04:30am 7.9 5.7 6.4 90 0.7 E 7 9 4 5 1021.2 1021.2 0.0
21/04:00am 8.1 4.8 6.2 88 0.9 E 13 15 7 8 1020.8 1020.8 0.0
21/03:30am 7.7 4.6 5.5 86 1.0 E 11 13 6 7 1020.7 1020.7 0.0
21/03:00am 7.9 4.8 5.4 84 1.1 E 11 13 6 7 1020.7 1020.7 0.0
21/02:30am 8.2 4.7 5.3 82 1.3 E 13 15 7 8 1020.6 1020.6 0.0
21/02:00am 8.4 5.2 5.2 80 1.4 E 11 15 6 8 1020.4 1020.4 0.0
21/01:30am 9.0 6.9 5.7 80 1.5 SE 6 9 3 5 1020.3 1020.3 0.0
21/01:00am 8.6 6.2 5.2 79 1.5 ENE 7 9 4 5 1020.1 1020.1 0.0
21/12:30am 8.4 5.9 4.8 78 1.6 ENE 7 9 4 5 1019.9 1019.9 0.0
21/12:00am 8.4 5.2 5.0 79 1.5 ENE 11 13 6 7 1019.7 1019.7 0.0
 
Date/Time
EST
Temp
°C
App
Temp
°C
Dew
Point
Rel
Hum
%
Delta-T
°C
Wind Press
QNH
hPa
Press
MSL
hPa
Rain
since 9 am
mm
Dir
 
Spd
km/h
Gust
km/h
Spd
kts
Gust
kts
20/11:30pm 8.4 5.6 5.0 79 1.5 ENE 9 11 5 6 1019.6 1019.6 0.0
20/11:00pm 8.3 5.1 4.9 79 1.5 E 11 13 6 7 1019.6 1019.6 0.0
20/10:30pm 8.3 5.0 4.5 77 1.7 E 11 15 6 8 1019.6 1019.6 0.0
20/10:00pm 8.1 5.4 3.9 75 1.8 E 7 11 4 6 1019.6 1019.6 0.0
20/09:30pm 8.3 4.9 3.8 73 1.9 E 11 15 6 8 1019.3 1019.3 0.0
20/09:00pm 9.8 6.0 5.6 75 1.9 S 15 24 8 13 1019.0 1019.0 0.0
20/08:30pm 8.4 5.0 3.8 73 2.0 SE 11 17 6 9 1018.6 1018.6 0.0
20/08:00pm 9.7 4.8 5.3 74 2.0 S 20 30 11 16 1018.2 1018.2 0.0
20/07:30pm 8.5 4.4 4.1 74 1.9 SE 15 20 8 11 1017.8 1017.8 0.0
20/07:00pm 8.7 4.2 4.3 74 1.9 SSE 17 24 9 13 1017.3 1017.3 0.0
20/06:30pm 9.8 3.9 5.6 75 1.9 S 26 35 14 19 1016.8 1016.8 0.0
20/06:00pm 9.8 3.1 5.6 75 1.9 SSW 30 37 16 20 1016.0 1016.0 0.0
20/05:30pm 9.7 2.6 5.3 74 2.0 S 32 39 17 21 1015.3 1015.4 0.0
20/05:00pm 10.1 3.1 5.9 75 1.9 S 32 39 17 21 1014.8 1014.9 0.0
20/04:30pm 10.1 3.2 6.3 77 1.8 S 32 41 17 22 1014.5 1014.6 0.0
20/04:00pm 10.1 2.2 6.4 78 1.7 S 37 46 20 25 1014.0 1014.1 0.0
20/03:30pm 10.2 2.0 6.7 79 1.6 S 39 50 21 27 1013.6 1013.7 0.0
20/03:00pm 10.4 1.6 7.1 80 1.6 S 43 54 23 29 1013.3 1013.4 0.0
20/02:30pm 10.6 1.7 7.5 81 1.5 S 44 54 24 29 1012.8 1012.9 0.0
20/02:00pm 11.0 2.8 8.2 83 1.4 S 41 50 22 27 1012.5 1012.6 0.0
20/01:30pm 10.9 3.1 8.3 84 1.3 S 39 52 21 28 1012.1 1012.2 0.0
20/01:00pm 11.2 4.0 9.1 87 1.0 S 37 46 20 25 1011.9 1012.0 0.0
20/12:30pm 10.9 3.7 9.0 88 0.9 S 37 46 20 25 1011.8 1011.9 0.0
20/12:00pm 10.7 4.2 9.1 90 0.8 S 33 43 18 23 1011.8 1011.9 0.0
20/11:30am 10.9 4.8 9.8 93 0.6 S 32 43 17 23 1011.7 1011.8 0.0

Other Formats:

Comma delimited format used in spreadsheet applications
http://www.bom.gov.au/fwo/IDT60801/IDT60801.94974.axf

JavaScript Object Notation format (JSON) in row-major order
http://www.bom.gov.au/fwo/IDT60801/IDT60801.94974.json